Time;durP1;ratioP1;P1;durP2;ratioP2;P2;SDS_P1;SDS_P2;PMS_P1;PMS_P2;Temp;Humidity;BMP_temperature;BMP_pressure;BME280_temperature;BME280_humidity;BME280_pressure;Samples;Min_cycle;Max_cycle;Signal;HPM_P1;HPM_P2
2023/06/13 00:00:44;;;;;;;1.58;1.35;;;;;;;;;;5029916;28;20036;-78
2023/06/13 00:03:13;;;;;;;1.58;1.25;;;;;;;;;;5034812;28;20042;-77
2023/06/13 00:05:45;;;;;;;0.80;0.80;;;;;;;;;;5020611;28;20060;-77
2023/06/13 00:08:17;;;;;;;3.30;1.23;;;;;;;;;;5030920;28;20029;-77
2023/06/13 00:10:44;;;;;;;1.83;1.10;;;;;;;;;;5032332;28;20481;-77
2023/06/13 00:13:10;;;;;;;2.30;1.60;;;;;;;;;;5032111;28;20052;-77
2023/06/13 00:15:36;;;;;;;1.90;1.48;;;;;;;;;;5026573;28;20026;-77
2023/06/13 00:18:03;;;;;;;1.77;1.20;;;;;;;;;;5032575;28;20489;-76
2023/06/13 00:20:30;;;;;;;2.65;1.58;;;;;;;;;;5033648;28;20032;-77
2023/06/13 00:22:57;;;;;;;2.15;1.33;;;;;;;;;;5029048;28;20034;-77
2023/06/13 00:25:23;;;;;;;1.58;1.30;;;;;;;;;;5021343;28;20030;-77
2023/06/13 00:27:49;;;;;;;3.13;1.33;;;;;;;;;;5031729;28;20034;-77
2023/06/13 00:30:15;;;;;;;1.80;1.42;;;;;;;;;;5023283;28;20024;-77
2023/06/13 00:32:42;;;;;;;2.42;1.20;;;;;;;;;;5025516;28;20037;-77
2023/06/13 00:35:08;;;;;;;1.85;1.52;;;;;;;;;;5021599;28;20477;-77
2023/06/13 00:37:36;;;;;;;2.47;1.48;;;;;;;;;;5014165;28;20038;-77
2023/06/13 00:40:04;;;;;;;1.52;1.20;;;;;;;;;;5025617;28;20488;-78
2023/06/13 00:42:32;;;;;;;1.92;1.10;;;;;;;;;;5021993;28;20037;-76
2023/06/13 00:45:18;;;;;;;2.67;1.42;;;;;;;;;;5026532;28;20025;-77
2023/06/13 00:47:45;;;;;;;1.55;1.38;;;;;;;;;;5020637;28;20484;-77
2023/06/13 00:50:12;;;;;;;1.52;1.23;;;;;;;;;;5017762;28;20060;-78
2023/06/13 00:52:39;;;;;;;2.05;1.25;;;;;;;;;;5011353;28;20034;-78
2023/06/13 00:55:05;;;;;;;1.80;1.00;;;;;;;;;;5024278;28;20035;-78
2023/06/13 00:57:32;;;;;;;1.52;1.38;;;;;;;;;;5024159;28;20017;-77
2023/06/13 00:59:58;;;;;;;1.10;1.00;;;;;;;;;;5026861;28;20551;-77
2023/06/13 01:02:25;;;;;;;1.73;1.20;;;;;;;;;;5022250;28;20029;-77
2023/06/13 01:04:51;;;;;;;1.27;1.15;;;;;;;;;;5030435;28;20041;-78
2023/06/13 01:07:17;;;;;;;2.10;1.00;;;;;;;;;;5027656;28;20038;-78
2023/06/13 01:09:43;;;;;;;1.80;1.52;;;;;;;;;;5018866;28;20025;-78
2023/06/13 01:12:17;;;;;;;1.27;1.02;;;;;;;;;;5027964;28;20041;-78
2023/06/13 01:14:53;;;;;;;1.13;1.00;;;;;;;;;;5030213;28;20060;-77
2023/06/13 01:17:26;;;;;;;1.38;1.00;;;;;;;;;;5019596;28;20030;-78
2023/06/13 01:19:54;;;;;;;1.58;0.90;;;;;;;;;;5029399;28;20042;-78
2023/06/13 01:22:21;;;;;;;1.33;1.08;;;;;;;;;;5025925;28;20046;-78
2023/06/13 01:25:10;;;;;;;2.15;1.35;;;;;;;;;;5028674;28;20093;-78
2023/06/13 01:27:39;;;;;;;1.20;1.10;;;;;;;;;;5014624;28;20030;-78
2023/06/13 01:30:05;;;;;;;1.40;0.98;;;;;;;;;;5025138;28;20537;-77
2023/06/13 01:32:33;;;;;;;3.22;1.30;;;;;;;;;;5003572;28;20034;-78
2023/06/13 01:34:59;;;;;;;1.67;1.23;;;;;;;;;;5023429;28;20034;-77
2023/06/13 01:37:25;;;;;;;1.23;0.82;;;;;;;;;;5016606;28;20547;-77
2023/06/13 01:39:51;;;;;;;1.00;0.98;;;;;;;;;;5018917;28;20148;-77
2023/06/13 01:42:17;;;;;;;1.00;0.90;;;;;;;;;;5024127;28;20030;-77
2023/06/13 01:44:43;;;;;;;1.17;0.93;;;;;;;;;;5030679;28;20075;-78
2023/06/13 01:47:15;;;;;;;0.77;0.60;;;;;;;;;;5028081;28;20037;-77
2023/06/13 01:49:59;;;;;;;1.50;1.05;;;;;;;;;;5020043;28;20040;-78
2023/06/13 01:52:35;;;;;;;1.13;1.02;;;;;;;;;;5027385;28;20034;-78
2023/06/13 01:55:03;;;;;;;1.17;1.08;;;;;;;;;;5026959;28;20021;-78
2023/06/13 01:57:33;;;;;;;1.13;1.02;;;;;;;;;;5030322;28;20075;-77
2023/06/13 02:00:00;;;;;;;1.55;1.13;;;;;;;;;;5029703;28;20132;-78
2023/06/13 02:02:29;;;;;;;1.00;0.90;;;;;;;;;;5025915;28;20029;-78
2023/06/13 02:04:55;;;;;;;1.48;1.10;;;;;;;;;;5025670;28;20043;-78
2023/06/13 02:07:22;;;;;;;0.80;0.80;;;;;;;;;;5028895;28;20029;-77
2023/06/13 02:09:48;;;;;;;1.10;0.90;;;;;;;;;;5028391;28;20049;-77
2023/06/13 02:12:14;;;;;;;1.83;0.90;;;;;;;;;;5026043;28;20045;-78
2023/06/13 02:14:42;;;;;;;1.77;1.17;;;;;;;;;;5025176;28;20030;-77
2023/06/13 02:17:08;;;;;;;1.45;1.17;;;;;;;;;;5029008;28;20025;-77
2023/06/13 02:19:37;;;;;;;1.23;1.08;;;;;;;;;;5016351;28;20578;-77
2023/06/13 02:22:03;;;;;;;1.08;0.93;;;;;;;;;;5028125;28;20091;-77
2023/06/13 02:24:29;;;;;;;1.10;1.00;;;;;;;;;;5022398;28;20030;-77
2023/06/13 02:26:55;;;;;;;1.08;0.88;;;;;;;;;;5010147;28;20036;-77
2023/06/13 02:29:21;;;;;;;0.93;0.82;;;;;;;;;;5013286;28;20469;-78
2023/06/13 02:31:47;;;;;;;1.20;1.10;;;;;;;;;;5026613;28;20025;-77
2023/06/13 02:34:13;;;;;;;1.20;1.10;;;;;;;;;;5013839;28;20389;-78
2023/06/13 02:36:39;;;;;;;0.90;0.82;;;;;;;;;;5011898;28;20152;-77
2023/06/13 02:39:07;;;;;;;1.20;0.98;;;;;;;;;;5017462;28;20033;-77
2023/06/13 02:41:33;;;;;;;1.10;0.93;;;;;;;;;;5018725;28;20052;-77
2023/06/13 02:44:00;;;;;;;1.30;0.90;;;;;;;;;;5026790;28;20037;-77
2023/06/13 02:46:26;;;;;;;0.90;0.90;;;;;;;;;;5028338;28;20022;-77
2023/06/13 02:48:52;;;;;;;1.25;1.00;;;;;;;;;;5016182;28;20041;-78
2023/06/13 02:51:18;;;;;;;1.05;0.95;;;;;;;;;;5028551;28;20084;-77
2023/06/13 02:53:44;;;;;;;0.90;0.90;;;;;;;;;;5020313;28;20021;-77
2023/06/13 02:56:11;;;;;;;1.40;0.90;;;;;;;;;;5028374;28;20081;-78
2023/06/13 02:58:40;;;;;;;1.30;1.20;;;;;;;;;;5029570;28;20038;-77
2023/06/13 03:01:07;;;;;;;1.25;1.02;;;;;;;;;;5028057;28;20029;-78
2023/06/13 03:03:34;;;;;;;1.48;0.82;;;;;;;;;;5020455;28;20036;-77
2023/06/13 03:06:01;;;;;;;2.25;0.90;;;;;;;;;;5019376;28;20388;-77
2023/06/13 03:08:30;;;;;;;2.28;1.00;;;;;;;;;;5026232;28;20026;-77
2023/06/13 03:10:56;;;;;;;1.40;0.90;;;;;;;;;;5024557;28;20418;-77
2023/06/13 03:13:22;;;;;;;1.00;0.90;;;;;;;;;;5017091;28;20025;-77
2023/06/13 03:15:51;;;;;;;1.23;1.13;;;;;;;;;;5018670;28;20392;-77
2023/06/13 03:18:18;;;;;;;3.03;1.42;;;;;;;;;;5018991;28;20040;-78
2023/06/13 03:20:47;;;;;;;0.93;0.88;;;;;;;;;;5021710;28;20030;-78
2023/06/13 03:23:14;;;;;;;1.33;1.10;;;;;;;;;;5020866;28;20049;-78
2023/06/13 03:25:40;;;;;;;2.05;1.45;;;;;;;;;;5025504;28;20026;-78
2023/06/13 03:28:06;;;;;;;1.33;1.10;;;;;;;;;;5018928;28;20109;-79
2023/06/13 03:30:33;;;;;;;1.70;1.20;;;;;;;;;;5029523;28;20030;-79
2023/06/13 03:32:59;;;;;;;0.90;0.90;;;;;;;;;;5019830;28;20029;-80
2023/06/13 03:35:25;;;;;;;1.02;0.93;;;;;;;;;;5014097;28;20037;-79
2023/06/13 03:37:51;;;;;;;6.47;1.08;;;;;;;;;;5016534;28;20032;-79
2023/06/13 03:40:17;;;;;;;1.92;1.00;;;;;;;;;;5027426;28;20029;-78
2023/06/13 03:42:43;;;;;;;1.23;1.13;;;;;;;;;;5028405;28;20036;-79
2023/06/13 03:45:09;;;;;;;0.98;0.77;;;;;;;;;;5027433;28;20029;-79
2023/06/13 03:47:35;;;;;;;4.30;1.17;;;;;;;;;;5026887;28;20075;-79
2023/06/13 03:50:03;;;;;;;2.88;1.02;;;;;;;;;;5010417;28;20076;-79
2023/06/13 03:52:30;;;;;;;1.80;1.08;;;;;;;;;;5018835;28;20017;-79
2023/06/13 03:54:57;;;;;;;0.70;0.70;;;;;;;;;;5029245;28;20029;-79
2023/06/13 03:57:23;;;;;;;2.10;1.25;;;;;;;;;;5025494;28;20049;-79
2023/06/13 03:59:49;;;;;;;0.80;0.80;;;;;;;;;;5016973;28;20059;-80
2023/06/13 04:02:15;;;;;;;1.30;1.10;;;;;;;;;;5025079;28;20045;-79
2023/06/13 04:04:46;;;;;;;1.70;0.95;;;;;;;;;;5029226;28;20033;-79
2023/06/13 04:07:12;;;;;;;;;;;;;;;;;;5026899;28;20029;-79
2023/06/13 04:09:38;;;;;;;1.55;1.25;;;;;;;;;;5028143;28;20484;-80
2023/06/13 04:12:05;;;;;;;1.58;0.85;;;;;;;;;;5021392;28;20034;-79
2023/06/13 04:14:33;;;;;;;1.52;1.05;;;;;;;;;;5028201;28;20421;-79
2023/06/13 04:16:59;;;;;;;1.05;0.90;;;;;;;;;;5030922;28;20026;-79
2023/06/13 04:19:25;;;;;;;1.75;1.08;;;;;;;;;;5020334;28;20077;-80
2023/06/13 04:21:52;;;;;;;1.55;0.98;;;;;;;;;;5018476;28;20068;-78
2023/06/13 04:24:18;;;;;;;1.65;1.05;;;;;;;;;;5031494;28;20033;-78
2023/06/13 04:26:46;;;;;;;1.00;0.90;;;;;;;;;;5031302;28;20061;-77
2023/06/13 04:29:17;;;;;;;1.45;1.13;;;;;;;;;;5031802;28;20083;-78
2023/06/13 04:31:43;;;;;;;1.90;1.10;;;;;;;;;;5028172;28;20021;-78
2023/06/13 04:34:11;;;;;;;1.40;1.02;;;;;;;;;;5020671;28;20040;-78
2023/06/13 04:36:38;;;;;;;1.00;0.90;;;;;;;;;;5027001;28;20056;-79
2023/06/13 04:39:06;;;;;;;1.83;1.02;;;;;;;;;;5026357;28;20119;-78
2023/06/13 04:41:35;;;;;;;1.80;0.93;;;;;;;;;;5025684;28;20488;-78
2023/06/13 04:44:03;;;;;;;1.55;0.88;;;;;;;;;;5009857;28;20128;-78
2023/06/13 04:46:30;;;;;;;1.80;1.30;;;;;;;;;;5011184;28;20161;-78
2023/06/13 04:48:59;;;;;;;1.52;1.27;;;;;;;;;;5023306;28;20026;-79
2023/06/13 04:51:28;;;;;;;1.35;1.05;;;;;;;;;;5006225;28;20026;-80
2023/06/13 04:54:15;;;;;;;5.03;1.50;;;;;;;;;;5020310;28;20048;-79
2023/06/13 04:56:41;;;;;;;1.95;1.23;;;;;;;;;;5015425;28;20506;-79
2023/06/13 04:59:08;;;;;;;1.20;1.10;;;;;;;;;;5010016;28;20034;-79
2023/06/13 05:01:34;;;;;;;1.70;0.93;;;;;;;;;;5020573;28;20033;-79
2023/06/13 05:04:00;;;;;;;1.10;1.00;;;;;;;;;;5024846;28;20021;-79
2023/06/13 05:06:26;;;;;;;4.70;1.13;;;;;;;;;;5014049;28;20473;-78
2023/06/13 05:08:52;;;;;;;1.73;1.30;;;;;;;;;;5007161;28;20026;-79
2023/06/13 05:11:18;;;;;;;1.15;1.00;;;;;;;;;;5017113;28;20021;-75
2023/06/13 05:13:44;;;;;;;1.77;1.00;;;;;;;;;;5023710;28;20048;-76
2023/06/13 05:16:10;;;;;;;1.38;0.93;;;;;;;;;;5026620;28;20374;-76
2023/06/13 05:18:40;;;;;;;1.50;1.35;;;;;;;;;;5025937;28;20049;-78
2023/06/13 05:21:07;;;;;;;1.50;1.20;;;;;;;;;;5025684;28;20029;-76
2023/06/13 05:23:33;;;;;;;1.27;1.05;;;;;;;;;;5009654;28;20061;-76
2023/06/13 05:25:59;;;;;;;1.35;0.85;;;;;;;;;;5022778;28;20037;-75
2023/06/13 05:28:25;;;;;;;1.33;0.85;;;;;;;;;;5029080;28;20022;-76
2023/06/13 05:30:52;;;;;;;3.55;1.33;;;;;;;;;;5028089;28;20014;-77
2023/06/13 05:33:18;;;;;;;0.98;0.88;;;;;;;;;;5018932;28;20109;-78
2023/06/13 05:35:44;;;;;;;1.52;1.00;;;;;;;;;;5020345;28;20508;-77
2023/06/13 05:38:11;;;;;;;1.23;1.02;;;;;;;;;;5027625;28;20040;-77
2023/06/13 05:40:37;;;;;;;1.10;0.98;;;;;;;;;;5016351;28;20026;-77
2023/06/13 05:43:03;;;;;;;3.75;1.05;;;;;;;;;;5009229;28;20042;-77
2023/06/13 05:45:29;;;;;;;1.73;1.00;;;;;;;;;;5025417;28;20064;-77
2023/06/13 05:47:55;;;;;;;1.30;1.13;;;;;;;;;;5028933;28;20084;-78
2023/06/13 05:50:21;;;;;;;1.25;1.13;;;;;;;;;;5014608;28;20030;-78
2023/06/13 05:52:47;;;;;;;3.20;1.20;;;;;;;;;;5016154;28;20404;-77
2023/06/13 05:55:13;;;;;;;2.05;1.25;;;;;;;;;;5008101;28;20069;-78
2023/06/13 05:57:40;;;;;;;1.50;1.20;;;;;;;;;;5022755;28;20033;-78
2023/06/13 06:00:09;;;;;;;1.23;1.00;;;;;;;;;;5029585;28;20035;-78
2023/06/13 06:02:35;;;;;;;2.22;1.20;;;;;;;;;;5010554;28;20037;-77
2023/06/13 06:05:01;;;;;;;1.42;1.33;;;;;;;;;;5009545;28;20477;-77
2023/06/13 06:07:27;;;;;;;1.30;1.00;;;;;;;;;;5013286;28;20028;-77
2023/06/13 06:09:53;;;;;;;1.10;1.00;;;;;;;;;;5029389;28;20526;-78
2023/06/13 06:12:18;;;;;;;1.80;1.38;;;;;;;;;;5029148;28;20373;-77
2023/06/13 06:14:44;;;;;;;1.60;1.40;;;;;;;;;;5029015;28;20030;-77
2023/06/13 06:17:10;;;;;;;3.67;1.52;;;;;;;;;;5026152;28;20083;-77
2023/06/13 06:19:36;;;;;;;2.22;1.58;;;;;;;;;;5024862;28;20131;-77
2023/06/13 06:22:02;;;;;;;1.75;1.40;;;;;;;;;;5016697;28;20057;-77
2023/06/13 06:24:28;;;;;;;1.83;1.35;;;;;;;;;;5009537;28;20109;-77
2023/06/13 06:26:54;;;;;;;2.45;1.58;;;;;;;;;;5014220;28;20035;-77
2023/06/13 06:29:20;;;;;;;1.98;1.10;;;;;;;;;;5016826;28;20030;-77
2023/06/13 06:31:46;;;;;;;1.48;1.23;;;;;;;;;;5016399;28;20635;-77
2023/06/13 06:34:12;;;;;;;1.40;1.05;;;;;;;;;;5026496;28;20032;-77
2023/06/13 06:36:38;;;;;;;1.42;1.05;;;;;;;;;;5010714;28;20026;-77
2023/06/13 06:39:04;;;;;;;1.55;1.08;;;;;;;;;;5016775;28;20040;-77
2023/06/13 06:41:30;;;;;;;1.70;0.90;;;;;;;;;;5028703;28;20030;-78
2023/06/13 06:43:56;;;;;;;1.55;1.20;;;;;;;;;;5028528;28;20041;-77
2023/06/13 06:46:22;;;;;;;1.27;1.10;;;;;;;;;;5026848;28;20688;-75
2023/06/13 06:48:48;;;;;;;1.38;1.02;;;;;;;;;;5027768;28;20044;-75
2023/06/13 06:51:14;;;;;;;1.10;1.00;;;;;;;;;;5028389;28;20014;-75
2023/06/13 06:53:40;;;;;;;1.55;1.08;;;;;;;;;;5012541;28;20030;-75
2023/06/13 06:56:06;;;;;;;4.03;1.70;;;;;;;;;;5028111;28;20107;-74
2023/06/13 06:58:32;;;;;;;1.15;0.90;;;;;;;;;;5026229;28;20037;-74
2023/06/13 07:00:58;;;;;;;3.25;1.70;;;;;;;;;;5028402;28;20037;-77
2023/06/13 07:03:24;;;;;;;2.10;1.35;;;;;;;;;;5017531;28;20026;-77
2023/06/13 07:05:50;;;;;;;1.63;1.10;;;;;;;;;;5028007;28;20036;-78
2023/06/13 07:08:16;;;;;;;3.80;1.40;;;;;;;;;;5026076;28;20022;-77
2023/06/13 07:10:42;;;;;;;3.70;1.63;;;;;;;;;;5008654;28;20030;-77
2023/06/13 07:13:08;;;;;;;1.42;1.17;;;;;;;;;;5008623;28;20442;-77
2023/06/13 07:15:34;;;;;;;1.48;1.25;;;;;;;;;;5016767;28;20029;-76
2023/06/13 07:18:00;;;;;;;2.20;1.48;;;;;;;;;;5018571;28;20030;-76
2023/06/13 07:20:26;;;;;;;2.03;1.30;;;;;;;;;;5015420;28;20034;-77
2023/06/13 07:22:52;;;;;;;1.30;1.00;;;;;;;;;;5015975;28;20057;-74
2023/06/13 07:25:18;;;;;;;3.35;1.42;;;;;;;;;;5021738;28;20037;-73
2023/06/13 07:27:44;;;;;;;6.13;1.27;;;;;;;;;;5014964;28;20026;-75
2023/06/13 07:30:10;;;;;;;1.58;1.27;;;;;;;;;;5012290;28;20025;-75
2023/06/13 07:32:36;;;;;;;4.53;1.48;;;;;;;;;;5021144;28;20519;-75
2023/06/13 07:35:03;;;;;;;2.30;1.30;;;;;;;;;;5011845;28;20029;-75
2023/06/13 07:37:29;;;;;;;3.25;1.38;;;;;;;;;;5018616;28;20121;-74
2023/06/13 07:39:54;;;;;;;3.40;1.35;;;;;;;;;;5020188;28;20799;-76
2023/06/13 07:42:20;;;;;;;1.50;1.40;;;;;;;;;;5013291;28;20284;-76
2023/06/13 07:44:46;;;;;;;4.97;1.42;;;;;;;;;;5028293;28;20029;-76
2023/06/13 07:47:13;;;;;;;2.28;1.33;;;;;;;;;;5016483;28;20029;-76
2023/06/13 07:49:39;;;;;;;2.65;1.27;;;;;;;;;;5023071;28;20021;-75
2023/06/13 07:52:05;;;;;;;1.42;1.23;;;;;;;;;;5020128;28;20104;-76
2023/06/13 07:54:31;;;;;;;1.35;1.20;;;;;;;;;;5017141;28;20044;-80
2023/06/13 07:56:57;;;;;;;2.15;1.40;;;;;;;;;;5031743;28;20036;-75
2023/06/13 07:59:23;;;;;;;1.60;1.38;;;;;;;;;;5027801;28;20032;-77
2023/06/13 08:01:49;;;;;;;1.63;1.17;;;;;;;;;;5024364;28;20036;-75
2023/06/13 08:04:15;;;;;;;3.22;1.30;;;;;;;;;;5028919;28;20033;-73
2023/06/13 08:06:42;;;;;;;1.95;1.20;;;;;;;;;;5024892;28;20026;-77
2023/06/13 08:09:11;;;;;;;5.50;1.33;;;;;;;;;;5031372;28;20029;-76
2023/06/13 08:11:37;;;;;;;1.95;1.40;;;;;;;;;;5031446;28;20025;-76
2023/06/13 08:14:03;;;;;;;1.88;1.20;;;;;;;;;;5031558;28;20175;-76
2023/06/13 08:16:29;;;;;;;1.95;1.17;;;;;;;;;;5024417;28;20374;-76
2023/06/13 08:18:55;;;;;;;1.55;1.33;;;;;;;;;;5023609;28;20053;-77
2023/06/13 08:21:21;;;;;;;2.83;1.40;;;;;;;;;;5019398;28;20024;-77
2023/06/13 08:23:47;;;;;;;1.40;1.10;;;;;;;;;;5011528;28;20084;-76
2023/06/13 08:26:13;;;;;;;2.60;1.45;;;;;;;;;;5011144;28;20477;-76
2023/06/13 08:28:41;;;;;;;2.83;1.75;;;;;;;;;;5024060;28;20018;-75
2023/06/13 08:31:08;;;;;;;2.08;1.48;;;;;;;;;;5020759;28;20025;-76
2023/06/13 08:33:36;;;;;;;2.60;1.52;;;;;;;;;;5025070;28;20044;-76
2023/06/13 08:36:02;;;;;;;1.65;1.33;;;;;;;;;;5030125;28;20076;-76
2023/06/13 08:38:28;;;;;;;1.33;1.20;;;;;;;;;;5019498;28;20097;-77
2023/06/13 08:40:54;;;;;;;2.92;1.70;;;;;;;;;;5018304;28;20033;-76
2023/06/13 08:43:20;;;;;;;3.03;1.52;;;;;;;;;;5011556;28;20037;-76
2023/06/13 08:45:46;;;;;;;2.17;1.30;;;;;;;;;;5024446;28;20040;-76
2023/06/13 08:48:12;;;;;;;6.60;1.73;;;;;;;;;;5030904;28;20037;-76
2023/06/13 08:50:38;;;;;;;2.00;1.60;;;;;;;;;;5025690;28;20124;-76
2023/06/13 08:53:04;;;;;;;1.85;1.30;;;;;;;;;;5011576;28;20381;-76
2023/06/13 08:55:32;;;;;;;2.08;1.45;;;;;;;;;;5024184;28;20030;-76
2023/06/13 08:57:59;;;;;;;3.50;1.45;;;;;;;;;;5011091;28;20029;-77
2023/06/13 09:00:25;;;;;;;2.00;1.33;;;;;;;;;;5010377;28;20026;-76
2023/06/13 09:02:52;;;;;;;1.35;1.20;;;;;;;;;;5012854;28;20036;-76
2023/06/13 09:05:18;;;;;;;1.27;1.10;;;;;;;;;;5030623;28;20033;-76
2023/06/13 09:07:45;;;;;;;1.88;1.40;;;;;;;;;;5026617;28;20496;-76
2023/06/13 09:10:12;;;;;;;5.15;1.63;;;;;;;;;;5010199;28;20025;-76
2023/06/13 09:12:41;;;;;;;2.22;1.65;;;;;;;;;;5028770;28;20491;-76
2023/06/13 09:15:08;;;;;;;1.52;1.40;;;;;;;;;;5019819;28;20503;-75
2023/06/13 09:17:34;;;;;;;1.58;1.48;;;;;;;;;;5024141;28;20500;-75
2023/06/13 09:20:00;;;;;;;2.78;1.38;;;;;;;;;;5023996;28;20045;-75
2023/06/13 09:22:29;;;;;;;2.63;1.75;;;;;;;;;;5021451;28;20483;-74
2023/06/13 09:24:56;;;;;;;3.97;1.52;;;;;;;;;;5011084;28;20056;-74
2023/06/13 09:27:22;;;;;;;1.95;1.30;;;;;;;;;;5019675;28;20061;-74
2023/06/13 09:29:49;;;;;;;3.55;1.63;;;;;;;;;;5022951;28;20030;-74
2023/06/13 09:32:15;;;;;;;2.03;1.50;;;;;;;;;;5015769;28;20068;-75
2023/06/13 09:34:42;;;;;;;5.45;1.40;;;;;;;;;;5015700;28;20560;-76
2023/06/13 09:37:08;;;;;;;4.88;1.58;;;;;;;;;;5018368;28;20057;-74
2023/06/13 09:39:35;;;;;;;2.50;1.38;;;;;;;;;;5021239;28;20117;-74
2023/06/13 09:42:02;;;;;;;1.88;1.65;;;;;;;;;;5020622;28;20041;-75
2023/06/13 09:44:34;;;;;;;3.40;1.25;;;;;;;;;;5023081;28;20412;-75
2023/06/13 09:47:00;;;;;;;2.97;1.45;;;;;;;;;;5023834;28;20035;-75
2023/06/13 09:49:30;;;;;;;2.05;1.55;;;;;;;;;;5017772;28;20024;-74
2023/06/13 09:51:58;;;;;;;1.90;1.20;;;;;;;;;;5023254;28;20037;-75
2023/06/13 09:54:24;;;;;;;2.30;1.40;;;;;;;;;;5013165;28;20029;-75
2023/06/13 09:56:50;;;;;;;2.28;1.40;;;;;;;;;;5018471;28;20029;-74
2023/06/13 09:59:17;;;;;;;2.33;1.50;;;;;;;;;;5019255;28;20025;-75
2023/06/13 10:01:46;;;;;;;2.88;1.70;;;;;;;;;;5018250;28;20022;-76
2023/06/13 10:04:12;;;;;;;4.05;1.77;;;;;;;;;;5024783;28;20033;-72
2023/06/13 10:06:38;;;;;;;2.83;2.10;;;;;;;;;;5027357;28;20049;-72
2023/06/13 10:09:05;;;;;;;1.92;1.13;;;;;;;;;;5018392;28;20069;-73
2023/06/13 10:11:35;;;;;;;2.05;1.27;;;;;;;;;;5021073;28;20022;-72
2023/06/13 10:14:12;;;;;;;2.28;1.38;;;;;;;;;;5017822;28;20041;-74
2023/06/13 10:16:39;;;;;;;1.00;0.90;;;;;;;;;;5024048;28;20033;-72
2023/06/13 10:19:05;;;;;;;2.03;1.30;;;;;;;;;;5016845;28;20049;-75
2023/06/13 10:21:32;;;;;;;1.55;1.23;;;;;;;;;;5025180;28;20262;-75
2023/06/13 10:23:59;;;;;;;2.75;1.30;;;;;;;;;;5009078;28;20088;-75
2023/06/13 10:26:31;;;;;;;2.08;1.67;;;;;;;;;;5010178;28;20179;-76
2023/06/13 10:29:08;;;;;;;1.33;1.17;;;;;;;;;;5017370;28;20060;-74
2023/06/13 10:31:49;;;;;;;1.60;1.40;;;;;;;;;;5014818;28;20034;-75
2023/06/13 10:34:39;;;;;;;1.77;1.38;;;;;;;;;;5021489;28;20503;-75
2023/06/13 10:37:30;;;;;;;4.70;1.92;;;;;;;;;;5019637;28;20041;-75
2023/06/13 10:40:15;;;;;;;1.95;1.00;;;;;;;;;;5007354;28;20073;-75
2023/06/13 10:42:45;;;;;;;1.60;1.30;;;;;;;;;;5017055;28;20029;-75
2023/06/13 10:45:13;;;;;;;1.85;1.20;;;;;;;;;;5021581;28;20087;-76
2023/06/13 10:47:39;;;;;;;1.67;1.00;;;;;;;;;;5018703;28;20483;-74
2023/06/13 10:50:08;;;;;;;2.53;1.30;;;;;;;;;;4999233;28;20042;-75
2023/06/13 10:52:34;;;;;;;1.17;1.05;;;;;;;;;;5015684;28;20021;-76
2023/06/13 10:55:03;;;;;;;1.38;1.20;;;;;;;;;;5019233;28;20029;-75
2023/06/13 10:57:51;;;;;;;1.40;1.17;;;;;;;;;;5012216;28;20533;-75
2023/06/13 11:00:24;;;;;;;2.00;1.00;;;;;;;;;;5008586;28;20033;-75
2023/06/13 11:02:51;;;;;;;3.08;1.48;;;;;;;;;;5022540;28;20031;-75
2023/06/13 11:05:17;;;;;;;1.30;1.15;;;;;;;;;;5019115;28;20029;-75
2023/06/13 11:07:48;;;;;;;4.22;1.35;;;;;;;;;;5019140;28;20036;-75
2023/06/13 11:10:19;;;;;;;1.90;1.20;;;;;;;;;;5009360;28;20058;-75
2023/06/13 11:12:45;;;;;;;1.77;1.20;;;;;;;;;;5016125;28;20017;-75
2023/06/13 11:15:23;;;;;;;1.55;1.25;;;;;;;;;;5026186;28;20030;-75
2023/06/13 11:18:08;;;;;;;0.98;0.85;;;;;;;;;;5014984;28;20529;-74
2023/06/13 11:20:34;;;;;;;2.08;1.20;;;;;;;;;;5016391;28;20052;-74
2023/06/13 11:23:00;;;;;;;1.80;1.30;;;;;;;;;;5016651;28;20024;-73
2023/06/13 11:25:26;;;;;;;1.52;1.10;;;;;;;;;;5011549;28;20030;-75
2023/06/13 11:27:52;;;;;;;1.42;1.33;;;;;;;;;;5019009;28;20104;-74
2023/06/13 11:30:18;;;;;;;1.15;0.90;;;;;;;;;;5016912;28;20104;-75
2023/06/13 11:32:44;;;;;;;2.63;1.00;;;;;;;;;;5010998;28;20084;-74
2023/06/13 11:35:11;;;;;;;2.03;1.10;;;;;;;;;;5011604;28;20034;-74
2023/06/13 11:37:44;;;;;;;3.10;1.40;;;;;;;;;;5014462;28;20037;-73
2023/06/13 11:40:23;;;;;;;1.63;1.10;;;;;;;;;;5016469;28;20044;-74
2023/06/13 11:42:52;;;;;;;1.75;1.00;;;;;;;;;;5011441;28;20098;-74
2023/06/13 11:45:22;;;;;;;2.00;1.30;;;;;;;;;;5013672;28;20034;-74
2023/06/13 11:47:56;;;;;;;1.23;1.00;;;;;;;;;;5010377;28;20130;-74
2023/06/13 11:50:28;;;;;;;1.65;1.17;;;;;;;;;;5025031;28;20018;-74
2023/06/13 11:53:11;;;;;;;5.38;1.92;;;;;;;;;;5019574;28;20108;-73
2023/06/13 11:55:37;;;;;;;1.83;1.30;;;;;;;;;;5007840;28;20049;-74
2023/06/13 11:58:03;;;;;;;1.40;1.27;;;;;;;;;;5011380;28;20485;-74
2023/06/13 12:00:29;;;;;;;1.92;1.02;;;;;;;;;;5021276;28;20036;-74
2023/06/13 12:02:56;;;;;;;0.85;0.85;;;;;;;;;;5017435;28;20974;-74
2023/06/13 12:05:22;;;;;;;2.05;1.20;;;;;;;;;;5016158;28;20067;-74
2023/06/13 12:07:49;;;;;;;1.65;1.20;;;;;;;;;;5023331;28;20029;-74
2023/06/13 12:10:15;;;;;;;1.27;1.17;;;;;;;;;;5021668;28;20053;-74
2023/06/13 12:12:41;;;;;;;1.67;1.20;;;;;;;;;;5014287;28;20022;-74
2023/06/13 12:15:13;;;;;;;1.20;1.00;;;;;;;;;;5013382;28;20065;-74
2023/06/13 12:17:55;;;;;;;1.75;1.48;;;;;;;;;;5016809;28;20022;-74
2023/06/13 12:20:24;;;;;;;1.25;0.88;;;;;;;;;;5015451;28;20053;-74
2023/06/13 12:22:55;;;;;;;1.50;1.10;;;;;;;;;;5015325;28;20064;-73
2023/06/13 12:25:21;;;;;;;2.17;1.27;;;;;;;;;;5015408;28;20033;-74
2023/06/13 12:27:50;;;;;;;1.25;1.15;;;;;;;;;;5010206;28;20083;-73
2023/06/13 12:30:17;;;;;;;1.30;1.15;;;;;;;;;;5016102;28;20030;-74
2023/06/13 12:32:44;;;;;;;0.85;0.85;;;;;;;;;;5010351;28;20026;-73
2023/06/13 12:35:11;;;;;;;1.23;1.10;;;;;;;;;;5022042;28;20038;-73
2023/06/13 12:37:38;;;;;;;1.20;1.10;;;;;;;;;;5015612;28;20033;-74
2023/06/13 12:40:12;;;;;;;1.48;1.20;;;;;;;;;;5027101;28;20055;-74
2023/06/13 12:42:42;;;;;;;3.20;1.30;;;;;;;;;;5015543;28;20084;-74
2023/06/13 12:45:09;;;;;;;1.55;1.05;;;;;;;;;;5003130;28;20388;-74
2023/06/13 12:47:35;;;;;;;1.10;1.00;;;;;;;;;;5015198;28;20032;-74
2023/06/13 12:50:07;;;;;;;2.85;1.40;;;;;;;;;;5019707;28;20030;-73
2023/06/13 12:52:35;;;;;;;1.23;1.13;;;;;;;;;;5012495;28;20110;-73
2023/06/13 12:55:01;;;;;;;1.23;1.10;;;;;;;;;;5018759;28;20113;-73
2023/06/13 12:57:27;;;;;;;1.42;1.00;;;;;;;;;;5012629;28;20064;-75
2023/06/13 12:59:53;;;;;;;1.25;1.13;;;;;;;;;;5015416;28;20057;-73
2023/06/13 13:02:20;;;;;;;2.95;0.95;;;;;;;;;;5014361;28;20029;-75
2023/06/13 13:04:46;;;;;;;1.23;1.08;;;;;;;;;;5024280;28;20029;-74
2023/06/13 13:07:18;;;;;;;2.92;1.40;;;;;;;;;;5021907;28;20527;-75
2023/06/13 13:09:45;;;;;;;0.95;0.85;;;;;;;;;;5012985;28;20076;-75
2023/06/13 13:12:13;;;;;;;1.42;0.90;;;;;;;;;;5016425;28;20029;-75
2023/06/13 13:14:39;;;;;;;3.63;1.27;;;;;;;;;;5017233;28;20539;-74
2023/06/13 13:17:08;;;;;;;2.42;0.95;;;;;;;;;;5014576;28;20038;-74
2023/06/13 13:19:34;;;;;;;1.33;1.02;;;;;;;;;;5014748;28;20048;-74
2023/06/13 13:22:03;;;;;;;1.70;1.20;;;;;;;;;;5017232;28;20424;-74
2023/06/13 13:24:29;;;;;;;2.15;1.00;;;;;;;;;;5014028;28;20026;-73
2023/06/13 13:26:56;;;;;;;1.30;1.20;;;;;;;;;;5023375;28;20412;-73
2023/06/13 13:29:23;;;;;;;1.55;1.30;;;;;;;;;;5018201;28;20026;-74
2023/06/13 13:31:49;;;;;;;2.05;1.30;;;;;;;;;;5021973;28;20026;-74
2023/06/13 13:34:16;;;;;;;1.75;1.00;;;;;;;;;;5010557;28;20030;-75
2023/06/13 13:36:42;;;;;;;1.55;1.10;;;;;;;;;;5013703;28;20735;-75
2023/06/13 13:39:09;;;;;;;0.80;0.80;;;;;;;;;;5015985;28;20025;-74
2023/06/13 13:41:35;;;;;;;1.63;1.23;;;;;;;;;;5021182;28;20113;-75
2023/06/13 13:44:02;;;;;;;0.77;0.70;;;;;;;;;;5017335;28;20116;-74
2023/06/13 13:46:28;;;;;;;1.08;0.85;;;;;;;;;;5019948;28;20030;-73
2023/06/13 13:48:54;;;;;;;1.73;1.25;;;;;;;;;;5011694;28;20052;-74
2023/06/13 13:51:24;;;;;;;1.40;1.08;;;;;;;;;;5016429;28;20018;-73
2023/06/13 13:53:50;;;;;;;0.95;0.95;;;;;;;;;;5021028;28;20025;-74
2023/06/13 13:56:16;;;;;;;1.05;0.95;;;;;;;;;;5020123;28;20035;-75
2023/06/13 13:58:42;;;;;;;1.10;0.80;;;;;;;;;;5029167;28;20404;-73
2023/06/13 14:01:08;;;;;;;2.05;1.38;;;;;;;;;;5023383;28;20056;-74
2023/06/13 14:03:40;;;;;;;1.08;1.00;;;;;;;;;;5020841;28;20037;-76
2023/06/13 14:06:06;;;;;;;4.25;0.90;;;;;;;;;;5011952;28;20550;-76
2023/06/13 14:08:32;;;;;;;1.05;0.95;;;;;;;;;;5026098;28;20480;-77
2023/06/13 14:10:59;;;;;;;0.98;0.98;;;;;;;;;;5028123;28;20029;-77
2023/06/13 14:13:25;;;;;;;1.00;0.90;;;;;;;;;;5014397;28;20029;-78
2023/06/13 14:15:51;;;;;;;1.80;1.23;;;;;;;;;;5022590;28;20021;-77
2023/06/13 14:18:18;;;;;;;3.83;1.65;;;;;;;;;;5013674;28;20472;-77
2023/06/13 14:20:44;;;;;;;1.90;1.00;;;;;;;;;;5026009;28;20033;-76
2023/06/13 14:23:16;;;;;;;1.75;1.25;;;;;;;;;;5036659;28;20056;-76
2023/06/13 14:25:41;;;;;;;;;;;;;;;;;;5035213;28;20025;-76
2023/06/13 14:28:07;;;;;;;1.02;0.82;;;;;;;;;;5035997;28;20459;-77
2023/06/13 14:30:34;;;;;;;0.93;0.90;;;;;;;;;;5030679;28;20041;-77
2023/06/13 14:33:00;;;;;;;1.60;1.10;;;;;;;;;;5030955;28;20438;-77
2023/06/13 14:35:28;;;;;;;1.65;1.25;;;;;;;;;;5033194;28;20368;-77
2023/06/13 14:37:54;;;;;;;1.83;1.00;;;;;;;;;;5031705;28;20514;-77
2023/06/13 14:40:20;;;;;;;1.63;1.13;;;;;;;;;;5015294;28;20025;-78
2023/06/13 14:42:46;;;;;;;2.15;1.38;;;;;;;;;;5034771;28;20018;-77
2023/06/13 14:45:16;;;;;;;1.13;1.02;;;;;;;;;;5031885;28;20617;-77